首页
METAR-TAF:

METAR-TAF

机场 :

Alamogordo / Holloman, 新墨西哥州, 美国

纬度: 32-51N, 经度: 106-06W, 海拔: 1248米

当前天气观测

该预报发布于59分钟前的11:55 UTC
静风
温度 21°C
湿度 49%
气压 1017 hPa
能見度: 16.1公里
天空无云

METAR: KHMN 251155Z AUTO 00000KT 10SM CLR 21/10 A3003 RMK AO2 SLP091 T02070099 10278 20205 53007 $

时间: 06:54 (12:54 UTC)

预报

该预报发布于3小时和54分钟前的09:00 UTC
预报有效从25日的 09点(UTC)到 26日的 15点(UTC)
风速6节,风向多变
能见度10公里或以上
少量云层高于10000英尺
散云层高于20000英尺
成为
从 25日的 17点(UTC)到 25日的 18点(UTC)
风速10节,风向西转西北,有时为15节阵风
能见度10公里或以上
少量云层高于10000英尺
散云层高于15000英尺
雷暴
成为
从 26日的 01点(UTC)到 26日的 02点(UTC)
风速6节,风向多变
能见度10公里或以上
散云层高于10000英尺
散云层高于25000英尺

TAF: KHMN 250900Z 2509/2615 VRB06KT 9999 FEW100 SCT200 QNH2999INS BECMG 2517/2518 30010G15KT 9999 FEW100 SCT150 QNH2991INS TS OMTNS BECMG 2601/2602 VRB06KT 9999 SCT100 SCT250 QNH2993INS TX39/2522Z TN22/2512Z

超过4000个机场的气象观测和天气预报(METAR&TAF报告)。

可查询的气象台以黄色和红色小点在地图上表示。

将鼠标移到小点上方,可查看气象台名称。

然后点击查看天气观测和预报。

如需切换地图:点击带黑十字的绿色按钮放大地图;点击带横线的绿色按钮缩小地图;或者点击绿色箭头查看邻近地区的地图。


METAR-TAF: